Time;durP1;ratioP1;P1;durP2;ratioP2;P2;SDS_P1;SDS_P2;PMS_P1;PMS_P2;Temp;Humidity;BMP_temperature;BMP_pressure;BME280_temperature;BME280_humidity;BME280_pressure;Samples;Min_cycle;Max_cycle;Signal;HPM_P1;HPM_P2
2022/05/15 00:02:47;;;;;;;20.95;12.30;;;;;;;;;;6259083;28;20514;-60
2022/05/15 00:05:58;;;;;;;19.10;11.40;;;;;;;;;;6259989;28;20147;-50
2022/05/15 00:08:59;;;;;;;18.80;11.25;;;;;;;;;;6255572;28;20146;-54
2022/05/15 00:12:00;;;;;;;17.48;10.80;;;;;;;;;;6259082;28;20124;-58
2022/05/15 00:15:01;;;;;;;17.17;10.85;;;;;;;;;;6257588;28;21158;-55
2022/05/15 00:18:03;;;;;;;19.45;10.82;;;;;;;;;;6258248;28;20053;-50
2022/05/15 00:21:05;;;;;;;20.08;11.77;;;;;;;;;;6254471;28;20040;-57
2022/05/15 00:24:06;;;;;;;22.20;11.30;;;;;;;;;;6258336;28;20534;-59
2022/05/15 00:27:07;;;;;;;16.67;10.90;;;;;;;;;;6256862;28;20048;-51
2022/05/15 00:30:09;;;;;;;16.23;11.23;;;;;;;;;;6252758;28;20528;-50
2022/05/15 00:33:10;;;;;;;17.80;11.20;;;;;;;;;;6261302;28;20103;-54
2022/05/15 00:36:11;;;;;;;17.05;11.50;;;;;;;;;;6264414;28;20132;-50
2022/05/15 00:39:12;;;;;;;22.73;12.50;;;;;;;;;;6265194;28;20041;-52
2022/05/15 00:42:12;;;;;;;19.77;11.23;;;;;;;;;;6266931;28;20118;-57
2022/05/15 00:45:15;;;;;;;17.98;10.93;;;;;;;;;;6264593;28;20029;-50
2022/05/15 00:48:15;;;;;;;;;;;;;;;;;;6264889;28;20416;-52
2022/05/15 00:51:34;;;;;;;18.85;11.48;;;;;;;;;;6260079;28;19920;-56
2022/05/15 00:54:49;;;;;;;19.13;11.85;;;;;;;;;;6255834;28;20561;-59
2022/05/15 00:58:00;;;;;;;20.35;12.32;;;;;;;;;;6261164;28;20033;-55
2022/05/15 01:01:02;;;;;;;18.40;13.02;;;;;;;;;;6261556;28;20049;-57
2022/05/15 01:04:05;;;;;;;17.63;12.10;;;;;;;;;;6260791;28;20072;-54
2022/05/15 01:07:05;;;;;;;19.63;12.20;;;;;;;;;;6261085;28;20076;-52
2022/05/15 01:10:10;;;;;;;18.15;12.43;;;;;;;;;;6264970;28;20110;-53
2022/05/15 01:13:12;;;;;;;17.88;12.48;;;;;;;;;;6261480;28;20049;-58
2022/05/15 01:16:13;;;;;;;19.75;11.85;;;;;;;;;;6263341;28;20087;-55
2022/05/15 01:19:14;;;;;;;18.35;11.95;;;;;;;;;;6262305;28;20560;-53
2022/05/15 01:22:15;;;;;;;20.13;12.57;;;;;;;;;;6263423;28;20056;-55
2022/05/15 01:25:22;;;;;;;20.33;12.88;;;;;;;;;;6262503;28;20148;-51
2022/05/15 01:28:25;;;;;;;18.92;12.73;;;;;;;;;;6261894;28;20052;-51
2022/05/15 01:31:26;;;;;;;21.58;13.63;;;;;;;;;;6263890;28;20076;-56
2022/05/15 01:34:27;;;;;;;19.65;12.35;;;;;;;;;;6260192;28;20812;-56
2022/05/15 01:37:28;;;;;;;18.60;12.38;;;;;;;;;;6263948;28;20132;-51
2022/05/15 01:40:29;;;;;;;18.60;12.82;;;;;;;;;;6265798;28;20493;-50
2022/05/15 01:43:29;;;;;;;17.33;12.77;;;;;;;;;;6261101;28;20150;-50
2022/05/15 01:46:30;;;;;;;23.50;13.32;;;;;;;;;;6259733;28;20041;-50
2022/05/15 01:49:31;;;;;;;19.10;12.48;;;;;;;;;;6258326;28;20490;-52
2022/05/15 01:52:32;;;;;;;20.92;12.93;;;;;;;;;;6260867;28;20051;-58
2022/05/15 01:55:32;;;;;;;20.00;13.05;;;;;;;;;;6256955;28;20140;-55
2022/05/15 01:58:33;;;;;;;19.10;12.90;;;;;;;;;;6263504;28;20045;-51
2022/05/15 02:01:35;;;;;;;20.70;13.55;;;;;;;;;;6262515;28;20450;-57
2022/05/15 02:04:36;;;;;;;21.98;12.93;;;;;;;;;;6265491;28;20052;-55
2022/05/15 02:07:36;;;;;;;19.40;12.25;;;;;;;;;;6261378;28;20627;-52
2022/05/15 02:10:37;;;;;;;19.45;13.32;;;;;;;;;;6262999;28;20075;-50
2022/05/15 02:13:38;;;;;;;27.33;13.93;;;;;;;;;;6262044;28;20184;-51
2022/05/15 02:16:38;;;;;;;19.80;13.48;;;;;;;;;;6262830;28;20045;-50
2022/05/15 02:19:39;;;;;;;22.77;13.43;;;;;;;;;;6257760;28;20080;-60
2022/05/15 02:22:40;;;;;;;20.70;14.02;;;;;;;;;;6260881;28;20045;-53
2022/05/15 02:25:41;;;;;;;21.50;14.40;;;;;;;;;;6261309;28;20061;-55
2022/05/15 02:28:42;;;;;;;23.38;14.20;;;;;;;;;;6260622;28;20447;-51
2022/05/15 02:31:42;;;;;;;21.63;14.77;;;;;;;;;;6259354;28;20690;-60
2022/05/15 02:34:43;;;;;;;24.17;14.52;;;;;;;;;;6262347;28;20049;-61
2022/05/15 02:37:44;;;;;;;23.48;13.48;;;;;;;;;;6258786;28;20045;-51
2022/05/15 02:40:45;;;;;;;24.23;14.68;;;;;;;;;;6276532;28;20064;-59
2022/05/15 02:43:46;;;;;;;25.77;14.70;;;;;;;;;;6255052;28;20464;-51
2022/05/15 02:46:46;;;;;;;20.73;13.73;;;;;;;;;;6262006;28;20049;-50
2022/05/15 02:53:08;;;;;;;24.23;14.20;;;;;;;;;;6260765;28;20079;-58
2022/05/15 02:56:20;;;;;;;24.27;14.80;;;;;;;;;;6262451;28;20428;-51
2022/05/15 02:59:20;;;;;;;29.73;15.48;;;;;;;;;;6259672;28;20591;-52
2022/05/15 03:02:21;;;;;;;23.92;14.82;;;;;;;;;;6260124;28;20442;-54
2022/05/15 03:05:22;;;;;;;23.40;14.95;;;;;;;;;;6258779;28;20052;-51
2022/05/15 03:08:23;;;;;;;23.38;15.02;;;;;;;;;;6260307;28;20579;-51
2022/05/15 03:11:24;;;;;;;23.23;15.18;;;;;;;;;;6264312;28;20076;-50
2022/05/15 03:14:24;;;;;;;26.17;16.90;;;;;;;;;;6255623;28;20290;-54
2022/05/15 03:17:26;;;;;;;25.38;15.82;;;;;;;;;;6263135;28;20056;-56
2022/05/15 03:20:27;;;;;;;24.90;16.42;;;;;;;;;;6256747;28;20053;-55
2022/05/15 03:23:28;;;;;;;24.63;15.07;;;;;;;;;;6260673;28;20447;-51
2022/05/15 03:26:31;;;;;;;22.98;14.82;;;;;;;;;;6260542;28;20187;-51
2022/05/15 03:29:31;;;;;;;24.98;15.38;;;;;;;;;;6256666;28;20408;-50
2022/05/15 03:32:32;;;;;;;26.75;15.55;;;;;;;;;;6262125;28;20367;-51
2022/05/15 03:35:35;;;;;;;32.95;17.17;;;;;;;;;;6259498;28;20052;-60
2022/05/15 03:38:40;;;;;;;25.05;15.95;;;;;;;;;;6257004;28;20041;-59
2022/05/15 03:41:42;;;;;;;26.40;15.68;;;;;;;;;;6265389;28;20071;-55
2022/05/15 03:44:42;;;;;;;26.30;17.27;;;;;;;;;;6262953;28;20049;-54
2022/05/15 03:48:03;;;;;;;36.65;17.17;;;;;;;;;;6263914;28;20302;-50
2022/05/15 03:51:04;;;;;;;25.92;16.35;;;;;;;;;;6257245;28;20060;-52
2022/05/15 03:54:05;;;;;;;26.20;17.08;;;;;;;;;;6261039;28;20118;-55
2022/05/15 03:57:05;;;;;;;28.95;17.30;;;;;;;;;;6263850;28;20053;-56
2022/05/15 04:00:12;;;;;;;25.00;15.60;;;;;;;;;;6261758;28;20052;-51
2022/05/15 04:03:12;;;;;;;27.60;16.40;;;;;;;;;;6262281;28;20084;-53
2022/05/15 04:06:13;;;;;;;22.33;14.73;;;;;;;;;;6260780;28;20071;-56
2022/05/15 04:09:14;;;;;;;26.90;15.13;;;;;;;;;;6263816;28;20510;-50
2022/05/15 04:12:15;;;;;;;28.10;15.50;;;;;;;;;;6268857;28;20045;-55
2022/05/15 04:15:16;;;;;;;25.30;15.77;;;;;;;;;;6266776;28;20137;-52
2022/05/15 04:18:16;;;;;;;29.30;15.73;;;;;;;;;;6269854;28;20041;-60
2022/05/15 04:21:17;;;;;;;28.35;15.52;;;;;;;;;;6268180;28;20140;-52
2022/05/15 04:24:19;;;;;;;23.35;15.13;;;;;;;;;;6268339;28;20052;-54
2022/05/15 04:27:19;;;;;;;25.33;15.57;;;;;;;;;;6266462;28;20068;-55
2022/05/15 04:30:24;;;;;;;25.48;15.63;;;;;;;;;;6267516;28;20411;-57
2022/05/15 04:33:25;;;;;;;25.52;16.00;;;;;;;;;;6271018;28;20122;-51
2022/05/15 04:36:25;;;;;;;30.77;15.63;;;;;;;;;;6265673;28;20539;-55
2022/05/15 04:39:26;;;;;;;27.50;15.90;;;;;;;;;;6267003;28;20916;-50
2022/05/15 04:42:27;;;;;;;24.23;15.73;;;;;;;;;;6264327;28;20441;-60
2022/05/15 04:45:28;;;;;;;28.90;16.08;;;;;;;;;;6265029;28;20136;-56
2022/05/15 04:48:30;;;;;;;25.77;15.55;;;;;;;;;;6265146;28;20041;-50
2022/05/15 04:51:30;;;;;;;25.92;15.88;;;;;;;;;;6269578;28;20072;-51
2022/05/15 04:54:31;;;;;;;30.65;16.35;;;;;;;;;;6264785;28;20044;-59
2022/05/15 04:57:32;;;;;;;28.30;16.27;;;;;;;;;;6263079;28;20215;-52
2022/05/15 05:00:32;;;;;;;30.92;16.05;;;;;;;;;;6264541;28;20114;-51
2022/05/15 05:03:33;;;;;;;28.85;16.05;;;;;;;;;;6249440;28;20054;-56
2022/05/15 05:06:33;;;;;;;25.92;13.98;;;;;;;;;;6263578;28;20041;-51
2022/05/15 05:09:34;;;;;;;23.90;13.25;;;;;;;;;;6263419;28;20125;-59
2022/05/15 05:12:36;;;;;;;22.00;12.40;;;;;;;;;;6267253;28;20044;-55
2022/05/15 05:15:36;;;;;;;24.77;11.13;;;;;;;;;;6263887;28;20357;-57
2022/05/15 05:18:37;;;;;;;22.58;11.13;;;;;;;;;;6267151;28;20057;-51
2022/05/15 05:21:38;;;;;;;20.25;11.35;;;;;;;;;;6268286;28;20140;-59
2022/05/15 05:24:39;;;;;;;16.88;9.43;;;;;;;;;;6263976;28;20504;-59
2022/05/15 05:27:41;;;;;;;20.15;9.05;;;;;;;;;;6252844;28;20080;-56
2022/05/15 05:30:42;;;;;;;18.73;8.88;;;;;;;;;;6244213;28;20080;-57
2022/05/15 05:33:43;;;;;;;18.27;8.70;;;;;;;;;;6247964;28;20096;-54
2022/05/15 05:36:44;;;;;;;19.27;9.45;;;;;;;;;;6244668;28;20159;-60
2022/05/15 05:39:45;;;;;;;19.60;8.75;;;;;;;;;;6258249;28;20118;-51
2022/05/15 05:42:46;;;;;;;18.65;8.98;;;;;;;;;;6266293;28;20067;-51
2022/05/15 05:45:46;;;;;;;16.90;9.20;;;;;;;;;;6260011;28;20541;-60
2022/05/15 05:48:48;;;;;;;17.60;9.90;;;;;;;;;;6261834;28;20041;-58
2022/05/15 05:51:48;;;;;;;22.92;9.43;;;;;;;;;;6263056;28;20048;-58
2022/05/15 05:54:49;;;;;;;18.23;8.27;;;;;;;;;;6259347;28;20052;-60
2022/05/15 05:57:49;;;;;;;15.80;6.95;;;;;;;;;;6262551;28;20040;-56
2022/05/15 06:00:50;;;;;;;18.15;7.15;;;;;;;;;;6261157;28;20093;-52
2022/05/15 06:07:17;;;;;;;13.63;6.40;;;;;;;;;;6261835;28;20111;-57
2022/05/15 06:10:17;;;;;;;15.65;8.18;;;;;;;;;;6265655;28;20436;-57
2022/05/15 06:13:18;;;;;;;17.65;8.32;;;;;;;;;;6265937;28;20127;-57
2022/05/15 06:16:18;;;;;;;18.95;9.13;;;;;;;;;;6265269;28;20155;-57
2022/05/15 06:19:19;;;;;;;21.77;9.73;;;;;;;;;;6266768;28;20400;-50
2022/05/15 06:22:20;;;;;;;19.05;9.13;;;;;;;;;;6265485;28;20123;-53
2022/05/15 06:25:20;;;;;;;17.95;9.25;;;;;;;;;;6260799;28;20052;-69
2022/05/15 06:28:21;;;;;;;16.15;10.38;;;;;;;;;;6253105;28;20147;-60
2022/05/15 06:31:22;;;;;;;18.33;8.70;;;;;;;;;;6254147;28;20049;-60
2022/05/15 06:34:22;;;;;;;16.05;9.32;;;;;;;;;;6252528;28;20128;-60
2022/05/15 06:37:23;;;;;;;12.30;6.13;;;;;;;;;;6260987;28;20051;-60
2022/05/15 06:40:23;;;;;;;11.93;5.63;;;;;;;;;;6258139;28;20073;-57
2022/05/15 06:43:24;;;;;;;12.38;5.65;;;;;;;;;;6251290;28;20045;-58
2022/05/15 06:46:25;;;;;;;11.43;6.15;;;;;;;;;;6248918;28;20116;-54
2022/05/15 06:49:26;;;;;;;12.38;5.50;;;;;;;;;;6250838;28;20144;-58
2022/05/15 06:52:27;;;;;;;11.85;5.28;;;;;;;;;;6249109;28;20045;-56
2022/05/15 06:55:28;;;;;;;12.90;5.68;;;;;;;;;;6250402;28;20046;-54
2022/05/15 06:58:29;;;;;;;13.38;5.45;;;;;;;;;;6246776;28;20970;-54
2022/05/15 07:01:31;;;;;;;11.40;5.90;;;;;;;;;;6249278;28;20145;-58
2022/05/15 07:04:31;;;;;;;11.98;5.35;;;;;;;;;;6250090;28;20776;-58
2022/05/15 07:07:32;;;;;;;13.77;6.10;;;;;;;;;;6250258;28;20067;-59
2022/05/15 07:10:33;;;;;;;16.52;6.07;;;;;;;;;;6251336;28;20055;-52
2022/05/15 07:13:33;;;;;;;16.60;6.38;;;;;;;;;;6260821;28;20087;-55
2022/05/15 07:16:34;;;;;;;11.52;5.15;;;;;;;;;;6265301;28;20047;-53
2022/05/15 07:19:35;;;;;;;13.07;6.30;;;;;;;;;;6262021;28;20392;-51
2022/05/15 07:22:36;;;;;;;18.10;6.30;;;;;;;;;;6266547;28;20174;-60
2022/05/15 07:25:37;;;;;;;14.07;6.20;;;;;;;;;;6268212;28;20063;-61
2022/05/15 07:28:37;;;;;;;10.23;5.53;;;;;;;;;;6254535;28;20800;-59
2022/05/15 07:31:38;;;;;;;11.40;5.00;;;;;;;;;;6252113;28;20049;-58
2022/05/15 07:34:40;;;;;;;9.93;4.53;;;;;;;;;;6253842;28;20045;-53
2022/05/15 07:37:41;;;;;;;11.70;4.32;;;;;;;;;;6248054;28;20120;-53
2022/05/15 07:40:43;;;;;;;10.15;4.75;;;;;;;;;;6251153;28;20041;-54
2022/05/15 07:43:43;;;;;;;12.82;4.95;;;;;;;;;;6249291;28;20184;-51
2022/05/15 07:46:44;;;;;;;12.15;5.30;;;;;;;;;;6250253;28;20045;-52
2022/05/15 07:49:45;;;;;;;12.98;5.05;;;;;;;;;;6254792;28;20503;-54
2022/05/15 07:52:45;;;;;;;11.02;4.85;;;;;;;;;;6248892;28;20451;-58
2022/05/15 07:55:46;;;;;;;12.25;5.80;;;;;;;;;;6254904;28;20045;-53
2022/05/15 07:58:47;;;;;;;15.63;5.20;;;;;;;;;;6253721;28;20187;-56
2022/05/15 08:01:48;;;;;;;12.23;5.47;;;;;;;;;;6252751;28;20052;-51
2022/05/15 08:08:10;;;;;;;13.30;5.07;;;;;;;;;;6252469;28;20484;-60
2022/05/15 08:11:10;;;;;;;10.43;4.95;;;;;;;;;;6250292;28;20056;-58
2022/05/15 08:14:12;;;;;;;15.38;5.25;;;;;;;;;;6253013;28;20566;-61
2022/05/15 08:17:12;;;;;;;14.57;4.32;;;;;;;;;;6250794;28;20420;-54
2022/05/15 08:23:49;;;;;;;12.77;5.10;;;;;;;;;;6262009;28;20041;-58
2022/05/15 08:26:51;;;;;;;14.75;5.05;;;;;;;;;;6253530;28;20064;-58
2022/05/15 08:29:51;;;;;;;12.07;4.70;;;;;;;;;;6260692;28;20076;-57
2022/05/15 08:32:53;;;;;;;14.88;5.57;;;;;;;;;;6260418;28;20541;-53
2022/05/15 08:35:54;;;;;;;14.82;5.20;;;;;;;;;;6258525;28;20045;-51
2022/05/15 08:38:54;;;;;;;13.57;5.30;;;;;;;;;;6257492;28;20060;-57
2022/05/15 08:42:20;;;;;;;10.25;4.35;;;;;;;;;;6259580;28;20053;-57
2022/05/15 08:45:24;;;;;;;16.13;4.28;;;;;;;;;;6259586;28;20072;-55
2022/05/15 08:48:26;;;;;;;11.98;4.30;;;;;;;;;;6259805;28;20053;-55
2022/05/15 08:51:30;;;;;;;14.48;4.35;;;;;;;;;;6256546;28;20045;-54
2022/05/15 08:54:36;;;;;;;11.68;3.90;;;;;;;;;;6260548;28;20049;-56
2022/05/15 08:57:48;;;;;;;14.68;4.28;;;;;;;;;;6266236;28;20049;-59
2022/05/15 09:00:51;;;;;;;10.60;4.43;;;;;;;;;;6260373;28;20128;-59
2022/05/15 09:03:52;;;;;;;10.05;4.25;;;;;;;;;;6259478;28;20049;-60
2022/05/15 09:07:13;;;;;;;16.33;4.07;;;;;;;;;;6261238;28;20045;-57
2022/05/15 09:10:33;;;;;;;9.15;3.78;;;;;;;;;;6294240;28;20118;-60
2022/05/15 09:14:00;;;;;;;9.23;3.90;;;;;;;;;;6256491;28;20045;-53
2022/05/15 09:17:24;;;;;;;9.40;4.13;;;;;;;;;;6264011;28;20083;-58
2022/05/15 09:20:54;;;;;;;11.40;4.13;;;;;;;;;;6253237;28;20057;-56
2022/05/15 09:24:01;;;;;;;13.48;4.57;;;;;;;;;;6261855;28;20084;-54
2022/05/15 09:27:16;;;;;;;11.70;4.65;;;;;;;;;;6263966;28;20063;-59
2022/05/15 09:30:18;;;;;;;10.82;4.22;;;;;;;;;;6260359;28;20069;-61
2022/05/15 09:33:47;;;;;;;11.93;4.30;;;;;;;;;;6261807;28;20044;-54
2022/05/15 09:36:49;;;;;;;7.63;3.97;;;;;;;;;;6264283;28;20488;-57
2022/05/15 09:39:51;;;;;;;9.32;4.30;;;;;;;;;;6260082;28;20049;-52
2022/05/15 09:46:18;;;;;;;8.65;3.90;;;;;;;;;;6263942;28;20060;-57
2022/05/15 09:49:24;;;;;;;12.13;4.40;;;;;;;;;;6262841;28;20684;-59
2022/05/15 09:52:56;;;;;;;10.32;4.00;;;;;;;;;;6261936;28;20061;-51
2022/05/15 09:56:06;;;;;;;11.20;3.95;;;;;;;;;;6254281;28;20077;-50
2022/05/15 09:59:12;;;;;;;10.55;4.07;;;;;;;;;;6264127;28;20045;-60
2022/05/15 10:02:23;;;;;;;6.97;3.63;;;;;;;;;;6260984;28;20053;-55
2022/05/15 10:05:29;;;;;;;8.77;3.80;;;;;;;;;;6264400;28;20468;-57
2022/05/15 10:08:32;;;;;;;9.10;3.00;;;;;;;;;;6260088;28;20095;-60
2022/05/15 10:11:35;;;;;;;7.68;3.30;;;;;;;;;;6263490;28;20040;-60
2022/05/15 10:14:49;;;;;;;7.90;2.97;;;;;;;;;;6258926;28;20136;-55
2022/05/15 10:17:56;;;;;;;9.43;3.40;;;;;;;;;;6262827;28;20452;-54
2022/05/15 10:20:59;;;;;;;8.50;3.00;;;;;;;;;;6261153;28;20052;-56
2022/05/15 10:24:06;;;;;;;8.05;2.88;;;;;;;;;;6262355;28;20053;-53
2022/05/15 10:27:18;;;;;;;11.52;2.95;;;;;;;;;;6261187;28;20066;-53
2022/05/15 10:30:21;;;;;;;;;;;;;;;;;;6258939;28;20442;-53
2022/05/15 10:33:22;;;;;;;7.60;3.30;;;;;;;;;;6263692;28;19925;-59
2022/05/15 10:37:11;;;;;;;6.47;2.40;;;;;;;;;;6263014;28;20087;-52
2022/05/15 10:40:21;;;;;;;8.82;2.95;;;;;;;;;;6253489;28;20661;-57
2022/05/15 10:43:40;;;;;;;8.63;3.40;;;;;;;;;;6261258;28;20045;-55
2022/05/15 10:46:48;;;;;;;9.98;3.42;;;;;;;;;;6262274;28;20068;-54
2022/05/15 10:50:18;;;;;;;8.82;3.30;;;;;;;;;;6261774;28;20056;-52
2022/05/15 10:57:26;;;;;;;8.10;3.88;;;;;;;;;;6254984;28;20617;-61
2022/05/15 11:00:46;;;;;;;8.80;3.10;;;;;;;;;;6258669;28;20041;-58
2022/05/15 11:04:14;;;;;;;6.18;2.65;;;;;;;;;;6252623;28;20127;-59
2022/05/15 11:07:30;;;;;;;8.85;3.42;;;;;;;;;;6263497;28;20048;-50
2022/05/15 11:10:54;;;;;;;9.63;3.55;;;;;;;;;;6261749;28;20060;-55
2022/05/15 11:13:59;;;;;;;11.65;3.70;;;;;;;;;;6261213;28;20111;-52
2022/05/15 11:17:13;;;;;;;6.25;2.80;;;;;;;;;;6260576;28;20095;-53
2022/05/15 11:20:20;;;;;;;8.75;2.85;;;;;;;;;;6259459;28;20045;-55
2022/05/15 11:23:30;;;;;;;7.55;2.67;;;;;;;;;;6258991;28;20045;-54
2022/05/15 11:26:43;;;;;;;8.88;2.90;;;;;;;;;;6261749;28;20057;-54
2022/05/15 11:29:49;;;;;;;7.35;3.05;;;;;;;;;;6261038;28;20056;-52
2022/05/15 11:32:52;;;;;;;7.35;3.00;;;;;;;;;;6259254;28;20459;-58
2022/05/15 11:36:13;;;;;;;6.80;2.80;;;;;;;;;;6257940;28;20424;-51
2022/05/15 11:39:13;;;;;;;8.68;2.88;;;;;;;;;;6259969;28;20064;-53
2022/05/15 11:42:17;;;;;;;6.23;3.10;;;;;;;;;;6265033;28;20147;-52
2022/05/15 11:45:27;;;;;;;6.63;2.88;;;;;;;;;;6258716;28;20134;-58
2022/05/15 11:48:38;;;;;;;5.43;2.70;;;;;;;;;;6262929;28;20056;-54
2022/05/15 11:51:39;;;;;;;6.50;2.60;;;;;;;;;;6262972;28;20081;-54
2022/05/15 11:54:52;;;;;;;8.43;3.17;;;;;;;;;;6259556;28;20646;-56
2022/05/15 11:57:52;;;;;;;9.15;3.20;;;;;;;;;;6259533;28;20071;-51
2022/05/15 12:01:08;;;;;;;7.17;2.27;;;;;;;;;;6255301;28;20045;-61
2022/05/15 12:04:18;;;;;;;7.80;2.65;;;;;;;;;;6259966;28;20103;-61
2022/05/15 12:07:51;;;;;;;7.40;2.65;;;;;;;;;;6259090;28;20502;-59
2022/05/15 12:10:54;;;;;;;5.60;2.40;;;;;;;;;;6256465;28;20484;-60
2022/05/15 12:13:55;;;;;;;7.03;2.65;;;;;;;;;;6254424;28;21126;-61
2022/05/15 12:17:00;;;;;;;4.83;2.33;;;;;;;;;;6251241;28;20060;-59
2022/05/15 12:20:15;;;;;;;7.30;2.65;;;;;;;;;;6260981;28;20052;-52
2022/05/15 12:23:30;;;;;;;5.75;2.58;;;;;;;;;;6270736;28;20102;-61
2022/05/15 12:26:45;;;;;;;7.47;2.50;;;;;;;;;;6261170;28;20072;-51
2022/05/15 12:30:12;;;;;;;5.78;2.42;;;;;;;;;;6261546;28;20484;-54
2022/05/15 12:33:13;;;;;;;4.85;2.40;;;;;;;;;;6265721;28;20049;-59
2022/05/15 12:36:19;;;;;;;6.65;2.60;;;;;;;;;;6258793;28;20518;-57
2022/05/15 12:39:27;;;;;;;5.88;2.30;;;;;;;;;;6265869;28;20053;-58
2022/05/15 12:42:40;;;;;;;8.93;2.95;;;;;;;;;;6264813;28;20143;-59
2022/05/15 12:45:40;;;;;;;6.82;2.47;;;;;;;;;;6263339;28;20415;-60
2022/05/15 12:48:41;;;;;;;6.73;2.43;;;;;;;;;;6264902;28;20075;-55
2022/05/15 12:51:42;;;;;;;4.73;2.20;;;;;;;;;;6261960;28;20112;-54
2022/05/15 12:54:44;;;;;;;8.17;2.40;;;;;;;;;;6265995;28;20608;-51
2022/05/15 12:57:48;;;;;;;5.80;1.90;;;;;;;;;;6260651;28;20128;-61
2022/05/15 13:00:49;;;;;;;6.55;2.13;;;;;;;;;;6262906;28;20805;-59
2022/05/15 13:03:53;;;;;;;6.80;2.43;;;;;;;;;;6262186;28;20139;-60
2022/05/15 13:06:57;;;;;;;6.25;2.40;;;;;;;;;;6259848;28;20176;-59
2022/05/15 13:10:05;;;;;;;5.50;2.30;;;;;;;;;;6267571;28;20416;-60
2022/05/15 13:13:10;;;;;;;8.40;2.35;;;;;;;;;;6261220;28;20053;-60
2022/05/15 13:16:18;;;;;;;4.82;2.30;;;;;;;;;;6260966;28;20114;-60
2022/05/15 13:19:31;;;;;;;5.68;2.30;;;;;;;;;;6264003;28;20557;-61
2022/05/15 13:22:32;;;;;;;4.80;2.20;;;;;;;;;;6261049;28;20072;-58
2022/05/15 13:25:38;;;;;;;7.43;2.33;;;;;;;;;;6265761;28;20095;-53
2022/05/15 13:28:39;;;;;;;8.18;2.30;;;;;;;;;;6265656;28;20083;-59
2022/05/15 13:31:41;;;;;;;7.23;2.40;;;;;;;;;;6258902;28;20102;-59
2022/05/15 13:34:42;;;;;;;4.88;2.40;;;;;;;;;;6262004;28;20136;-55
2022/05/15 13:37:47;;;;;;;5.50;2.30;;;;;;;;;;6258082;28;20040;-54
2022/05/15 13:44:17;;;;;;;5.82;2.42;;;;;;;;;;6258157;28;20083;-53
2022/05/15 13:47:18;;;;;;;7.03;2.50;;;;;;;;;;6262510;28;20094;-54
2022/05/15 13:50:45;;;;;;;7.13;2.60;;;;;;;;;;6264211;28;20053;-59
2022/05/15 13:54:08;;;;;;;6.05;2.55;;;;;;;;;;6259650;28;20048;-58
2022/05/15 13:57:09;;;;;;;6.07;2.20;;;;;;;;;;6260193;28;20487;-52
2022/05/15 14:00:11;;;;;;;5.70;2.50;;;;;;;;;;6262967;28;20208;-60
2022/05/15 14:03:28;;;;;;;6.25;2.40;;;;;;;;;;6259281;28;20087;-60
2022/05/15 14:06:33;;;;;;;5.70;2.53;;;;;;;;;;6265524;28;20079;-54
2022/05/15 14:09:44;;;;;;;6.22;2.45;;;;;;;;;;6257062;28;20080;-60
2022/05/15 14:12:48;;;;;;;4.50;2.10;;;;;;;;;;6241109;28;20106;-56
2022/05/15 14:15:51;;;;;;;5.22;2.47;;;;;;;;;;6250281;28;20086;-54
2022/05/15 14:18:52;;;;;;;6.28;2.30;;;;;;;;;;6250711;28;20151;-54
2022/05/15 14:22:03;;;;;;;5.13;2.40;;;;;;;;;;6248593;28;20499;-52
2022/05/15 14:25:07;;;;;;;5.60;2.57;;;;;;;;;;6249403;28;20168;-60
2022/05/15 14:28:10;;;;;;;7.28;2.45;;;;;;;;;;6248783;28;20056;-58
2022/05/15 14:31:12;;;;;;;7.40;2.70;;;;;;;;;;6249245;28;20056;-58
2022/05/15 14:34:13;;;;;;;4.72;2.28;;;;;;;;;;6251413;28;20072;-55
2022/05/15 14:37:14;;;;;;;6.03;2.20;;;;;;;;;;6253191;28;20044;-59
2022/05/15 14:40:15;;;;;;;6.53;2.60;;;;;;;;;;6253794;28;20045;-57
2022/05/15 14:43:16;;;;;;;7.07;2.50;;;;;;;;;;6250064;28;20045;-54
2022/05/15 14:46:21;;;;;;;5.87;2.40;;;;;;;;;;6251945;28;20053;-69
2022/05/15 14:49:26;;;;;;;6.35;2.50;;;;;;;;;;6256525;28;20483;-57
2022/05/15 14:52:31;;;;;;;6.43;2.60;;;;;;;;;;6248969;28;20829;-55
2022/05/15 14:59:05;;;;;;;6.78;2.70;;;;;;;;;;6255249;28;20064;-58
2022/05/15 15:02:08;;;;;;;5.88;2.58;;;;;;;;;;6250774;28;20179;-59
2022/05/15 15:05:10;;;;;;;4.97;2.30;;;;;;;;;;6251479;28;20203;-53
2022/05/15 15:08:16;;;;;;;6.80;2.50;;;;;;;;;;6249861;28;20476;-60
2022/05/15 15:11:26;;;;;;;6.50;2.60;;;;;;;;;;6246701;28;20084;-54
2022/05/15 15:14:27;;;;;;;5.18;2.38;;;;;;;;;;6253910;28;20144;-52
2022/05/15 15:17:28;;;;;;;6.05;2.40;;;;;;;;;;6254787;28;20126;-50
2022/05/15 15:20:28;;;;;;;5.30;2.40;;;;;;;;;;6250168;28;20455;-57
2022/05/15 15:23:29;;;;;;;8.80;2.53;;;;;;;;;;6253580;28;20144;-52
2022/05/15 15:26:30;;;;;;;7.83;2.50;;;;;;;;;;6253065;28;20053;-55
2022/05/15 15:29:32;;;;;;;5.88;2.13;;;;;;;;;;6252960;28;20095;-53
2022/05/15 15:32:33;;;;;;;4.47;2.10;;;;;;;;;;6251059;28;20041;-59
2022/05/15 15:35:34;;;;;;;6.77;2.50;;;;;;;;;;6253105;28;20523;-54
2022/05/15 15:38:35;;;;;;;4.50;1.80;;;;;;;;;;6253762;28;20102;-56
2022/05/15 15:41:37;;;;;;;4.03;2.08;;;;;;;;;;6250573;28;20476;-58
2022/05/15 15:44:39;;;;;;;11.57;4.88;;;;;;;;;;6251310;28;20076;-52
2022/05/15 15:47:39;;;;;;;8.48;2.42;;;;;;;;;;6251967;28;20060;-57
2022/05/15 15:50:41;;;;;;;8.70;2.60;;;;;;;;;;6250118;28;20899;-58
2022/05/15 15:53:43;;;;;;;5.40;1.90;;;;;;;;;;6247681;28;20079;-52
2022/05/15 15:56:44;;;;;;;5.97;2.00;;;;;;;;;;6251406;28;20516;-54
2022/05/15 15:59:45;;;;;;;5.03;1.90;;;;;;;;;;6250423;28;20052;-57
2022/05/15 16:02:46;;;;;;;4.88;2.25;;;;;;;;;;6253697;28;20048;-55
2022/05/15 16:05:47;;;;;;;4.63;2.07;;;;;;;;;;6258313;28;20094;-55
2022/05/15 16:08:48;;;;;;;6.73;2.00;;;;;;;;;;6257733;28;20053;-56
2022/05/15 16:11:49;;;;;;;7.18;2.10;;;;;;;;;;6255843;28;20380;-53
2022/05/15 16:14:50;;;;;;;4.37;1.87;;;;;;;;;;6257882;28;20049;-55
2022/05/15 16:17:55;;;;;;;5.85;2.00;;;;;;;;;;6257705;28;20044;-57
2022/05/15 16:21:06;;;;;;;6.80;2.10;;;;;;;;;;6255386;28;20399;-54
2022/05/15 16:24:06;;;;;;;6.63;2.40;;;;;;;;;;6257748;28;20045;-54
2022/05/15 16:27:11;;;;;;;3.90;2.00;;;;;;;;;;6258599;28;20141;-53
2022/05/15 16:30:12;;;;;;;4.20;2.03;;;;;;;;;;6256786;28;20088;-58
2022/05/15 16:33:13;;;;;;;7.67;2.10;;;;;;;;;;6255272;28;20052;-55
2022/05/15 16:36:14;;;;;;;4.25;1.75;;;;;;;;;;6256558;28;20407;-53
2022/05/15 16:39:15;;;;;;;7.18;1.80;;;;;;;;;;6253238;28;20055;-51
2022/05/15 16:42:20;;;;;;;6.30;1.90;;;;;;;;;;6254192;28;20053;-53
2022/05/15 16:45:26;;;;;;;5.20;2.03;;;;;;;;;;6255498;28;20914;-56
2022/05/15 16:48:27;;;;;;;6.40;2.10;;;;;;;;;;6255986;28;20159;-54
2022/05/15 16:51:28;;;;;;;7.00;1.80;;;;;;;;;;6255488;28;20060;-57
2022/05/15 16:54:28;;;;;;;3.67;1.90;;;;;;;;;;6255781;28;20050;-56
2022/05/15 16:57:29;;;;;;;8.20;2.07;;;;;;;;;;6257726;28;20056;-56
2022/05/15 17:00:30;;;;;;;5.23;2.13;;;;;;;;;;6254469;28;20628;-53
2022/05/15 17:03:31;;;;;;;7.53;2.13;;;;;;;;;;6256633;28;20041;-53
2022/05/15 17:06:32;;;;;;;7.45;2.00;;;;;;;;;;6257304;28;20072;-57
2022/05/15 17:09:32;;;;;;;5.00;2.20;;;;;;;;;;6256146;28;20044;-55
2022/05/15 17:12:34;;;;;;;4.70;1.73;;;;;;;;;;6252914;28;20072;-56
2022/05/15 17:15:37;;;;;;;5.40;1.85;;;;;;;;;;6256458;28;20045;-58
2022/05/15 17:18:39;;;;;;;5.55;1.80;;;;;;;;;;6255154;28;20140;-57
2022/05/15 17:21:40;;;;;;;5.13;1.80;;;;;;;;;;6255223;28;21329;-58
2022/05/15 17:24:41;;;;;;;5.53;2.07;;;;;;;;;;6256396;28;20049;-55
2022/05/15 17:27:44;;;;;;;6.47;2.03;;;;;;;;;;6256782;28;20061;-55
2022/05/15 17:34:13;;;;;;;7.78;2.00;;;;;;;;;;6255284;28;20056;-55
2022/05/15 17:37:14;;;;;;;6.57;2.30;;;;;;;;;;6254903;28;20076;-53
2022/05/15 17:40:19;;;;;;;4.32;1.73;;;;;;;;;;6253163;28;20045;-52
2022/05/15 17:43:20;;;;;;;4.05;2.10;;;;;;;;;;6255308;28;20053;-54
2022/05/15 17:46:20;;;;;;;16.70;3.03;;;;;;;;;;6255573;28;20574;-55
2022/05/15 17:49:21;;;;;;;6.33;2.30;;;;;;;;;;6256624;28;20183;-55
2022/05/15 17:52:21;;;;;;;3.53;1.83;;;;;;;;;;6251170;28;20504;-54
2022/05/15 17:55:23;;;;;;;9.17;2.40;;;;;;;;;;6254488;28;21165;-60
2022/05/15 17:58:24;;;;;;;3.83;2.00;;;;;;;;;;6255267;28;20045;-56
2022/05/15 18:01:25;;;;;;;7.28;3.17;;;;;;;;;;6253009;28;20076;-56
2022/05/15 18:04:25;;;;;;;6.40;2.80;;;;;;;;;;6255105;28;20049;-58
2022/05/15 18:07:26;;;;;;;10.83;3.07;;;;;;;;;;6254391;28;20045;-53
2022/05/15 18:10:29;;;;;;;7.03;3.30;;;;;;;;;;6252428;28;20056;-55
2022/05/15 18:13:31;;;;;;;10.70;5.30;;;;;;;;;;6255183;28;20068;-57
2022/05/15 18:16:31;;;;;;;14.32;3.53;;;;;;;;;;6255744;28;20442;-56
2022/05/15 18:19:33;;;;;;;7.07;3.20;;;;;;;;;;6256855;28;20126;-57
2022/05/15 18:22:33;;;;;;;11.02;3.65;;;;;;;;;;6252757;28;20056;-54
2022/05/15 18:25:34;;;;;;;7.70;3.83;;;;;;;;;;6255168;28;20045;-54
2022/05/15 18:28:35;;;;;;;12.23;4.77;;;;;;;;;;6255857;28;20044;-57
2022/05/15 18:31:38;;;;;;;15.20;5.20;;;;;;;;;;6253856;28;20104;-55
2022/05/15 18:34:39;;;;;;;11.98;4.93;;;;;;;;;;6253322;28;20068;-55
2022/05/15 18:37:39;;;;;;;9.33;3.47;;;;;;;;;;6254383;28;20499;-56
2022/05/15 18:40:40;;;;;;;6.50;3.47;;;;;;;;;;6251645;28;20135;-55
2022/05/15 18:43:41;;;;;;;7.47;4.23;;;;;;;;;;6254469;28;20166;-56